Beech Island, South Carolina
Current Conditions -  °F | °C
As of 7:53 PM on Monday 24 Nov 2014 (Local Time) from KAGS Reporting Station
Light Rain Light Rain  
Wind Chill: 19°   Ceiling: Unl
Heat Index: 19°   Visibility: 10mi
Dew Point: 17°   Wind: 12mph
Humidity: 90%   Direction: 190°S
Pressure: 29.92"   Gusts: NA
Location:  33.43°N, 81.89°W
Report Text: KAGS 250053Z 19010KT 10SM -RA FEW048 SCT110 19/17 A2992 RMK AO2 RAB2354E21B51 SLP129 P0001 T01890172
Loading
Personal Weather Stations






























Interactive Weather Map New forecast layout! Learn more

10-Day Weather Forecast

Advertisements
Track Severe Weather on mobile